sensor_id;sensor_type;location;lat;lon;timestamp;P1;durP1;ratioP1;P2;durP2;ratioP2
50319;SDS011;36226;53.464;9.852;2022-11-20T00:01:37;6.65;;;4.35;;
50319;SDS011;36226;53.464;9.852;2022-11-20T00:04:02;7.32;;;4.47;;
50319;SDS011;36226;53.464;9.852;2022-11-20T00:06:28;8.98;;;4.32;;
50319;SDS011;36226;53.464;9.852;2022-11-20T00:08:55;10.07;;;4.65;;
50319;SDS011;36226;53.464;9.852;2022-11-20T00:11:22;7.00;;;4.25;;
50319;SDS011;36226;53.464;9.852;2022-11-20T00:13:50;6.40;;;4.05;;
50319;SDS011;36226;53.464;9.852;2022-11-20T00:16:17;7.07;;;4.40;;
50319;SDS011;36226;53.464;9.852;2022-11-20T00:18:44;9.63;;;4.90;;
50319;SDS011;36226;53.464;9.852;2022-11-20T00:21:11;6.70;;;4.40;;
50319;SDS011;36226;53.464;9.852;2022-11-20T00:23:38;6.78;;;4.13;;
50319;SDS011;36226;53.464;9.852;2022-11-20T00:26:08;8.38;;;4.00;;
50319;SDS011;36226;53.464;9.852;2022-11-20T00:28:36;8.00;;;4.55;;
50319;SDS011;36226;53.464;9.852;2022-11-20T00:31:05;5.72;;;3.75;;
50319;SDS011;36226;53.464;9.852;2022-11-20T00:33:32;8.02;;;4.30;;
50319;SDS011;36226;53.464;9.852;2022-11-20T00:36:01;7.38;;;4.18;;
50319;SDS011;36226;53.464;9.852;2022-11-20T00:38:29;8.07;;;4.30;;
50319;SDS011;36226;53.464;9.852;2022-11-20T00:40:56;7.70;;;4.10;;
50319;SDS011;36226;53.464;9.852;2022-11-20T00:43:24;5.38;;;3.90;;
50319;SDS011;36226;53.464;9.852;2022-11-20T00:45:50;6.70;;;4.03;;
50319;SDS011;36226;53.464;9.852;2022-11-20T00:48:16;8.10;;;4.20;;
50319;SDS011;36226;53.464;9.852;2022-11-20T00:50:41;6.50;;;3.60;;
50319;SDS011;36226;53.464;9.852;2022-11-20T00:53:07;7.07;;;4.55;;
50319;SDS011;36226;53.464;9.852;2022-11-20T00:55:32;6.53;;;4.10;;
50319;SDS011;36226;53.464;9.852;2022-11-20T00:57:57;7.50;;;4.47;;
50319;SDS011;36226;53.464;9.852;2022-11-20T01:00:23;8.27;;;4.57;;
50319;SDS011;36226;53.464;9.852;2022-11-20T01:02:48;7.65;;;4.40;;
50319;SDS011;36226;53.464;9.852;2022-11-20T01:05:13;8.57;;;3.97;;
50319;SDS011;36226;53.464;9.852;2022-11-20T01:07:39;8.95;;;4.20;;
50319;SDS011;36226;53.464;9.852;2022-11-20T01:10:04;6.40;;;4.03;;
50319;SDS011;36226;53.464;9.852;2022-11-20T01:12:30;6.20;;;3.90;;
50319;SDS011;36226;53.464;9.852;2022-11-20T01:14:55;8.73;;;4.05;;
50319;SDS011;36226;53.464;9.852;2022-11-20T01:17:21;8.40;;;3.92;;
50319;SDS011;36226;53.464;9.852;2022-11-20T01:19:48;9.02;;;4.32;;
50319;SDS011;36226;53.464;9.852;2022-11-20T01:22:15;6.03;;;3.65;;
50319;SDS011;36226;53.464;9.852;2022-11-20T01:24:40;6.65;;;4.13;;
50319;SDS011;36226;53.464;9.852;2022-11-20T01:27:05;6.20;;;3.83;;
50319;SDS011;36226;53.464;9.852;2022-11-20T01:29:31;9.55;;;4.18;;
50319;SDS011;36226;53.464;9.852;2022-11-20T01:31:56;8.90;;;4.07;;
50319;SDS011;36226;53.464;9.852;2022-11-20T01:34:22;7.20;;;4.18;;
50319;SDS011;36226;53.464;9.852;2022-11-20T01:36:48;7.20;;;4.05;;
50319;SDS011;36226;53.464;9.852;2022-11-20T01:39:24;5.93;;;3.85;;
50319;SDS011;36226;53.464;9.852;2022-11-20T01:41:51;7.40;;;3.72;;
50319;SDS011;36226;53.464;9.852;2022-11-20T01:47:23;5.47;;;3.60;;
50319;SDS011;36226;53.464;9.852;2022-11-20T01:49:53;7.35;;;3.40;;
50319;SDS011;36226;53.464;9.852;2022-11-20T01:52:33;4.68;;;3.20;;
50319;SDS011;36226;53.464;9.852;2022-11-20T01:55:08;6.82;;;3.60;;
50319;SDS011;36226;53.464;9.852;2022-11-20T01:57:36;5.45;;;3.45;;
50319;SDS011;36226;53.464;9.852;2022-11-20T02:00:07;5.68;;;3.38;;
50319;SDS011;36226;53.464;9.852;2022-11-20T02:02:37;5.75;;;3.22;;
50319;SDS011;36226;53.464;9.852;2022-11-20T02:05:09;6.28;;;3.75;;
50319;SDS011;36226;53.464;9.852;2022-11-20T02:07:40;5.18;;;3.25;;
50319;SDS011;36226;53.464;9.852;2022-11-20T02:10:06;4.68;;;3.45;;
50319;SDS011;36226;53.464;9.852;2022-11-20T02:12:32;8.85;;;3.47;;
50319;SDS011;36226;53.464;9.852;2022-11-20T02:15:16;7.28;;;3.47;;
50319;SDS011;36226;53.464;9.852;2022-11-20T02:17:41;7.35;;;3.45;;
50319;SDS011;36226;53.464;9.852;2022-11-20T02:20:06;6.50;;;3.67;;
50319;SDS011;36226;53.464;9.852;2022-11-20T02:22:37;6.50;;;3.42;;
50319;SDS011;36226;53.464;9.852;2022-11-20T02:25:07;8.15;;;3.60;;
50319;SDS011;36226;53.464;9.852;2022-11-20T02:27:33;5.13;;;2.90;;
50319;SDS011;36226;53.464;9.852;2022-11-20T02:30:03;4.85;;;3.25;;
50319;SDS011;36226;53.464;9.852;2022-11-20T02:32:33;4.60;;;3.08;;
50319;SDS011;36226;53.464;9.852;2022-11-20T02:36:01;5.35;;;3.42;;
50319;SDS011;36226;53.464;9.852;2022-11-20T02:37:59;6.07;;;2.97;;
50319;SDS011;36226;53.464;9.852;2022-11-20T02:40:26;6.22;;;3.15;;
50319;SDS011;36226;53.464;9.852;2022-11-20T02:42:52;4.30;;;3.05;;
50319;SDS011;36226;53.464;9.852;2022-11-20T02:45:18;5.38;;;3.03;;
50319;SDS011;36226;53.464;9.852;2022-11-20T02:47:43;4.95;;;3.05;;
50319;SDS011;36226;53.464;9.852;2022-11-20T02:50:09;5.72;;;2.90;;
50319;SDS011;36226;53.464;9.852;2022-11-20T02:52:34;5.03;;;3.30;;
50319;SDS011;36226;53.464;9.852;2022-11-20T02:55:00;7.38;;;3.67;;
50319;SDS011;36226;53.464;9.852;2022-11-20T02:57:25;4.82;;;3.15;;
50319;SDS011;36226;53.464;9.852;2022-11-20T02:59:50;5.75;;;3.35;;
50319;SDS011;36226;53.464;9.852;2022-11-20T03:02:16;5.10;;;2.90;;
50319;SDS011;36226;53.464;9.852;2022-11-20T03:04:41;5.72;;;3.13;;
50319;SDS011;36226;53.464;9.852;2022-11-20T03:07:07;5.50;;;3.40;;
50319;SDS011;36226;53.464;9.852;2022-11-20T03:09:33;8.60;;;3.45;;
50319;SDS011;36226;53.464;9.852;2022-11-20T03:11:58;5.25;;;2.60;;
50319;SDS011;36226;53.464;9.852;2022-11-20T03:14:23;4.63;;;3.10;;
50319;SDS011;36226;53.464;9.852;2022-11-20T03:16:49;4.97;;;3.20;;
50319;SDS011;36226;53.464;9.852;2022-11-20T03:19:14;5.20;;;3.10;;
50319;SDS011;36226;53.464;9.852;2022-11-20T03:21:40;7.00;;;3.03;;
50319;SDS011;36226;53.464;9.852;2022-11-20T03:24:05;4.93;;;3.05;;
50319;SDS011;36226;53.464;9.852;2022-11-20T03:26:31;5.40;;;3.30;;
50319;SDS011;36226;53.464;9.852;2022-11-20T03:29:03;6.07;;;3.65;;
50319;SDS011;36226;53.464;9.852;2022-11-20T03:31:33;7.70;;;3.50;;
50319;SDS011;36226;53.464;9.852;2022-11-20T03:34:01;6.43;;;3.30;;
50319;SDS011;36226;53.464;9.852;2022-11-20T03:36:28;6.80;;;3.60;;
50319;SDS011;36226;53.464;9.852;2022-11-20T03:38:54;5.85;;;3.20;;
50319;SDS011;36226;53.464;9.852;2022-11-20T03:41:21;4.93;;;3.08;;
50319;SDS011;36226;53.464;9.852;2022-11-20T03:43:48;6.35;;;3.03;;
50319;SDS011;36226;53.464;9.852;2022-11-20T03:46:14;4.82;;;3.13;;
50319;SDS011;36226;53.464;9.852;2022-11-20T03:48:39;6.47;;;3.72;;
50319;SDS011;36226;53.464;9.852;2022-11-20T03:51:15;4.93;;;3.10;;
50319;SDS011;36226;53.464;9.852;2022-11-20T03:53:42;6.70;;;3.25;;
50319;SDS011;36226;53.464;9.852;2022-11-20T03:56:09;7.00;;;3.20;;
50319;SDS011;36226;53.464;9.852;2022-11-20T03:58:36;6.03;;;3.67;;
50319;SDS011;36226;53.464;9.852;2022-11-20T04:01:21;7.60;;;3.70;;
50319;SDS011;36226;53.464;9.852;2022-11-20T04:06:55;7.15;;;3.70;;
50319;SDS011;36226;53.464;9.852;2022-11-20T04:09:02;5.68;;;3.47;;
50319;SDS011;36226;53.464;9.852;2022-11-20T04:11:29;7.82;;;3.63;;
50319;SDS011;36226;53.464;9.852;2022-11-20T04:13:56;6.75;;;3.70;;
50319;SDS011;36226;53.464;9.852;2022-11-20T04:16:23;5.95;;;3.53;;
50319;SDS011;36226;53.464;9.852;2022-11-20T04:18:56;6.40;;;3.30;;
50319;SDS011;36226;53.464;9.852;2022-11-20T04:21:22;5.28;;;3.40;;
50319;SDS011;36226;53.464;9.852;2022-11-20T04:23:48;5.88;;;3.35;;
50319;SDS011;36226;53.464;9.852;2022-11-20T04:26:14;5.65;;;3.53;;
50319;SDS011;36226;53.464;9.852;2022-11-20T04:28:39;7.53;;;3.60;;
50319;SDS011;36226;53.464;9.852;2022-11-20T04:31:09;8.27;;;4.28;;
50319;SDS011;36226;53.464;9.852;2022-11-20T04:33:37;9.52;;;3.90;;
50319;SDS011;36226;53.464;9.852;2022-11-20T04:36:14;6.72;;;3.95;;
50319;SDS011;36226;53.464;9.852;2022-11-20T04:38:43;6.55;;;3.50;;
50319;SDS011;36226;53.464;9.852;2022-11-20T04:41:11;5.20;;;3.67;;
50319;SDS011;36226;53.464;9.852;2022-11-20T04:43:40;6.07;;;3.60;;
50319;SDS011;36226;53.464;9.852;2022-11-20T04:46:05;5.28;;;3.30;;
50319;SDS011;36226;53.464;9.852;2022-11-20T04:48:30;6.95;;;4.43;;
50319;SDS011;36226;53.464;9.852;2022-11-20T04:50:56;10.30;;;4.60;;
50319;SDS011;36226;53.464;9.852;2022-11-20T04:53:21;6.72;;;3.65;;
50319;SDS011;36226;53.464;9.852;2022-11-20T04:55:47;6.00;;;3.60;;
50319;SDS011;36226;53.464;9.852;2022-11-20T04:58:12;6.85;;;3.83;;
50319;SDS011;36226;53.464;9.852;2022-11-20T05:00:38;7.90;;;4.10;;
50319;SDS011;36226;53.464;9.852;2022-11-20T05:03:03;5.30;;;3.75;;
50319;SDS011;36226;53.464;9.852;2022-11-20T05:05:29;6.70;;;3.88;;
50319;SDS011;36226;53.464;9.852;2022-11-20T05:07:57;6.55;;;3.75;;
50319;SDS011;36226;53.464;9.852;2022-11-20T05:10:24;7.32;;;3.78;;
50319;SDS011;36226;53.464;9.852;2022-11-20T05:12:49;5.95;;;3.83;;
50319;SDS011;36226;53.464;9.852;2022-11-20T05:15:15;6.57;;;4.13;;
50319;SDS011;36226;53.464;9.852;2022-11-20T05:17:40;10.10;;;4.45;;
50319;SDS011;36226;53.464;9.852;2022-11-20T05:20:06;6.88;;;4.30;;
50319;SDS011;36226;53.464;9.852;2022-11-20T05:22:31;8.05;;;4.57;;
50319;SDS011;36226;53.464;9.852;2022-11-20T05:24:57;8.18;;;4.10;;
50319;SDS011;36226;53.464;9.852;2022-11-20T05:27:22;7.63;;;4.40;;
50319;SDS011;36226;53.464;9.852;2022-11-20T05:29:51;10.60;;;4.30;;
50319;SDS011;36226;53.464;9.852;2022-11-20T05:32:16;7.63;;;4.47;;
50319;SDS011;36226;53.464;9.852;2022-11-20T05:34:42;7.75;;;4.30;;
50319;SDS011;36226;53.464;9.852;2022-11-20T05:37:07;5.60;;;4.03;;
50319;SDS011;36226;53.464;9.852;2022-11-20T05:39:32;8.43;;;4.15;;
50319;SDS011;36226;53.464;9.852;2022-11-20T05:41:58;8.80;;;4.40;;
50319;SDS011;36226;53.464;9.852;2022-11-20T05:44:41;10.18;;;4.80;;
50319;SDS011;36226;53.464;9.852;2022-11-20T05:47:07;8.18;;;3.83;;
50319;SDS011;36226;53.464;9.852;2022-11-20T05:49:32;6.80;;;4.45;;
50319;SDS011;36226;53.464;9.852;2022-11-20T05:51:57;8.25;;;4.40;;
50319;SDS011;36226;53.464;9.852;2022-11-20T05:54:23;8.18;;;4.43;;
50319;SDS011;36226;53.464;9.852;2022-11-20T05:56:48;8.30;;;4.40;;
50319;SDS011;36226;53.464;9.852;2022-11-20T05:59:14;8.93;;;4.63;;
50319;SDS011;36226;53.464;9.852;2022-11-20T06:01:39;7.63;;;4.97;;
50319;SDS011;36226;53.464;9.852;2022-11-20T06:18:00;8.00;;;4.53;;
50319;SDS011;36226;53.464;9.852;2022-11-20T06:20:25;8.25;;;4.80;;
50319;SDS011;36226;53.464;9.852;2022-11-20T06:22:50;8.82;;;4.65;;
50319;SDS011;36226;53.464;9.852;2022-11-20T06:53:11;10.82;;;6.38;;
50319;SDS011;36226;53.464;9.852;2022-11-20T06:55:37;9.10;;;6.30;;
50319;SDS011;36226;53.464;9.852;2022-11-20T06:58:02;10.98;;;6.32;;
50319;SDS011;36226;53.464;9.852;2022-11-20T07:00:27;14.77;;;7.15;;
50319;SDS011;36226;53.464;9.852;2022-11-20T07:02:53;13.02;;;6.90;;
50319;SDS011;36226;53.464;9.852;2022-11-20T07:05:18;10.73;;;5.97;;
50319;SDS011;36226;53.464;9.852;2022-11-20T07:07:43;11.90;;;6.65;;
50319;SDS011;36226;53.464;9.852;2022-11-20T07:10:09;9.93;;;6.57;;
50319;SDS011;36226;53.464;9.852;2022-11-20T07:12:34;12.55;;;7.00;;
50319;SDS011;36226;53.464;9.852;2022-11-20T07:15:00;13.02;;;7.00;;
50319;SDS011;36226;53.464;9.852;2022-11-20T07:17:25;11.38;;;6.80;;
50319;SDS011;36226;53.464;9.852;2022-11-20T07:19:51;12.05;;;7.10;;
50319;SDS011;36226;53.464;9.852;2022-11-20T07:22:16;10.98;;;6.68;;
50319;SDS011;36226;53.464;9.852;2022-11-20T07:24:41;11.23;;;6.95;;
50319;SDS011;36226;53.464;9.852;2022-11-20T07:27:07;10.73;;;6.55;;
50319;SDS011;36226;53.464;9.852;2022-11-20T07:29:32;10.38;;;6.72;;
50319;SDS011;36226;53.464;9.852;2022-11-20T07:31:58;11.55;;;6.70;;
50319;SDS011;36226;53.464;9.852;2022-11-20T07:37:21;12.98;;;7.40;;
50319;SDS011;36226;53.464;9.852;2022-11-20T07:39:47;11.05;;;6.53;;
50319;SDS011;36226;53.464;9.852;2022-11-20T07:42:12;12.40;;;6.80;;
50319;SDS011;36226;53.464;9.852;2022-11-20T07:44:38;11.48;;;6.45;;
50319;SDS011;36226;53.464;9.852;2022-11-20T07:47:03;11.77;;;6.30;;
50319;SDS011;36226;53.464;9.852;2022-11-20T07:49:29;12.88;;;6.43;;
50319;SDS011;36226;53.464;9.852;2022-11-20T07:51:54;10.95;;;6.28;;
50319;SDS011;36226;53.464;9.852;2022-11-20T07:54:20;11.13;;;6.25;;
50319;SDS011;36226;53.464;9.852;2022-11-20T07:56:46;11.70;;;7.20;;
50319;SDS011;36226;53.464;9.852;2022-11-20T07:59:11;11.10;;;6.32;;
50319;SDS011;36226;53.464;9.852;2022-11-20T08:01:37;12.90;;;6.60;;
50319;SDS011;36226;53.464;9.852;2022-11-20T08:04:03;13.93;;;6.40;;
50319;SDS011;36226;53.464;9.852;2022-11-20T08:06:29;11.85;;;6.22;;
50319;SDS011;36226;53.464;9.852;2022-11-20T08:08:54;10.60;;;6.50;;
50319;SDS011;36226;53.464;9.852;2022-11-20T08:11:19;9.50;;;5.80;;
50319;SDS011;36226;53.464;9.852;2022-11-20T08:14:03;10.02;;;6.47;;
50319;SDS011;36226;53.464;9.852;2022-11-20T08:16:47;11.20;;;6.32;;
50319;SDS011;36226;53.464;9.852;2022-11-20T08:19:13;10.38;;;6.18;;
50319;SDS011;36226;53.464;9.852;2022-11-20T08:21:39;10.55;;;6.07;;
50319;SDS011;36226;53.464;9.852;2022-11-20T08:24:05;10.27;;;6.07;;
50319;SDS011;36226;53.464;9.852;2022-11-20T08:26:31;13.15;;;7.13;;
50319;SDS011;36226;53.464;9.852;2022-11-20T08:28:56;14.23;;;7.10;;
50319;SDS011;36226;53.464;9.852;2022-11-20T08:31:23;13.10;;;8.10;;
50319;SDS011;36226;53.464;9.852;2022-11-20T08:33:49;17.15;;;8.30;;
50319;SDS011;36226;53.464;9.852;2022-11-20T08:36:15;13.98;;;8.20;;
50319;SDS011;36226;53.464;9.852;2022-11-20T08:38:40;15.23;;;8.00;;
50319;SDS011;36226;53.464;9.852;2022-11-20T08:41:05;12.93;;;7.63;;
50319;SDS011;36226;53.464;9.852;2022-11-20T08:49:22;12.05;;;6.82;;
50319;SDS011;36226;53.464;9.852;2022-11-20T08:51:47;10.20;;;6.05;;
50319;SDS011;36226;53.464;9.852;2022-11-20T08:54:21;11.50;;;6.43;;
50319;SDS011;36226;53.464;9.852;2022-11-20T08:56:56;9.70;;;6.40;;
50319;SDS011;36226;53.464;9.852;2022-11-20T08:59:21;9.13;;;5.60;;
50319;SDS011;36226;53.464;9.852;2022-11-20T09:01:47;9.23;;;5.32;;
50319;SDS011;36226;53.464;9.852;2022-11-20T09:04:12;8.73;;;5.45;;
50319;SDS011;36226;53.464;9.852;2022-11-20T09:06:39;9.65;;;5.85;;
50319;SDS011;36226;53.464;9.852;2022-11-20T09:09:05;8.50;;;5.65;;
50319;SDS011;36226;53.464;9.852;2022-11-20T09:11:30;8.50;;;5.18;;
50319;SDS011;36226;53.464;9.852;2022-11-20T09:13:56;7.57;;;5.18;;
50319;SDS011;36226;53.464;9.852;2022-11-20T09:16:21;7.93;;;5.55;;
50319;SDS011;36226;53.464;9.852;2022-11-20T09:18:49;8.50;;;4.90;;
50319;SDS011;36226;53.464;9.852;2022-11-20T09:21:15;6.75;;;4.50;;
50319;SDS011;36226;53.464;9.852;2022-11-20T09:23:40;8.55;;;5.35;;
50319;SDS011;36226;53.464;9.852;2022-11-20T09:26:06;7.38;;;4.82;;
50319;SDS011;36226;53.464;9.852;2022-11-20T09:28:34;7.90;;;4.65;;
50319;SDS011;36226;53.464;9.852;2022-11-20T09:30:59;9.45;;;4.97;;
50319;SDS011;36226;53.464;9.852;2022-11-20T09:33:25;8.50;;;4.53;;
50319;SDS011;36226;53.464;9.852;2022-11-20T09:35:50;9.93;;;5.20;;
50319;SDS011;36226;53.464;9.852;2022-11-20T09:38:15;15.85;;;7.72;;
50319;SDS011;36226;53.464;9.852;2022-11-20T09:40:44;14.40;;;7.50;;
50319;SDS011;36226;53.464;9.852;2022-11-20T09:51:25;8.15;;;5.00;;
50319;SDS011;36226;53.464;9.852;2022-11-20T09:56:26;12.43;;;6.65;;
50319;SDS011;36226;53.464;9.852;2022-11-20T09:58:52;12.18;;;6.18;;
50319;SDS011;36226;53.464;9.852;2022-11-20T10:01:30;9.65;;;5.68;;
50319;SDS011;36226;53.464;9.852;2022-11-20T10:04:20;7.25;;;4.82;;
50319;SDS011;36226;53.464;9.852;2022-11-20T10:07:24;14.68;;;6.28;;
50319;SDS011;36226;53.464;9.852;2022-11-20T10:09:56;8.00;;;4.97;;
50319;SDS011;36226;53.464;9.852;2022-11-20T10:15:24;8.38;;;5.22;;
50319;SDS011;36226;53.464;9.852;2022-11-20T10:18:23;7.25;;;4.47;;
50319;SDS011;36226;53.464;9.852;2022-11-20T10:21:17;7.70;;;4.43;;
50319;SDS011;36226;53.464;9.852;2022-11-20T10:29:18;7.05;;;4.82;;
50319;SDS011;36226;53.464;9.852;2022-11-20T10:31:48;7.10;;;4.70;;
50319;SDS011;36226;53.464;9.852;2022-11-20T10:37:17;7.75;;;4.85;;
50319;SDS011;36226;53.464;9.852;2022-11-20T10:42:45;6.20;;;3.92;;
50319;SDS011;36226;53.464;9.852;2022-11-20T10:45:21;7.20;;;4.55;;
50319;SDS011;36226;53.464;9.852;2022-11-20T10:47:54;6.70;;;4.05;;
50319;SDS011;36226;53.464;9.852;2022-11-20T10:50:32;6.03;;;3.38;;
50319;SDS011;36226;53.464;9.852;2022-11-20T10:55:53;8.68;;;5.35;;
50319;SDS011;36226;53.464;9.852;2022-11-20T10:58:45;30.08;;;13.20;;
50319;SDS011;36226;53.464;9.852;2022-11-20T11:01:25;6.65;;;4.30;;
50319;SDS011;36226;53.464;9.852;2022-11-20T11:03:54;6.20;;;3.70;;
50319;SDS011;36226;53.464;9.852;2022-11-20T11:06:32;5.85;;;3.80;;
50319;SDS011;36226;53.464;9.852;2022-11-20T11:09:02;5.65;;;3.75;;
50319;SDS011;36226;53.464;9.852;2022-11-20T11:11:30;10.98;;;4.60;;
50319;SDS011;36226;53.464;9.852;2022-11-20T11:14:04;7.28;;;4.63;;
50319;SDS011;36226;53.464;9.852;2022-11-20T11:16:33;5.85;;;3.40;;
50319;SDS011;36226;53.464;9.852;2022-11-20T11:19:06;6.65;;;3.38;;
50319;SDS011;36226;53.464;9.852;2022-11-20T11:21:32;5.80;;;3.03;;
50319;SDS011;36226;53.464;9.852;2022-11-20T11:24:04;4.63;;;2.97;;
50319;SDS011;36226;53.464;9.852;2022-11-20T11:26:29;4.85;;;3.00;;
50319;SDS011;36226;53.464;9.852;2022-11-20T11:31:32;4.78;;;2.65;;
50319;SDS011;36226;53.464;9.852;2022-11-20T11:34:06;6.07;;;3.28;;
50319;SDS011;36226;53.464;9.852;2022-11-20T11:36:41;7.20;;;4.53;;
50319;SDS011;36226;53.464;9.852;2022-11-20T11:39:17;5.10;;;3.20;;
50319;SDS011;36226;53.464;9.852;2022-11-20T11:41:43;5.20;;;3.15;;
50319;SDS011;36226;53.464;9.852;2022-11-20T11:44:15;8.93;;;5.20;;
50319;SDS011;36226;53.464;9.852;2022-11-20T11:47:01;8.00;;;3.95;;
50319;SDS011;36226;53.464;9.852;2022-11-20T11:49:27;4.90;;;3.15;;
50319;SDS011;36226;53.464;9.852;2022-11-20T11:57:03;13.18;;;7.00;;
50319;SDS011;36226;53.464;9.852;2022-11-20T12:02:29;9.40;;;4.55;;
50319;SDS011;36226;53.464;9.852;2022-11-20T12:05:21;5.50;;;3.58;;
50319;SDS011;36226;53.464;9.852;2022-11-20T12:07:51;5.90;;;3.83;;
50319;SDS011;36226;53.464;9.852;2022-11-20T12:13:01;5.57;;;3.90;;
50319;SDS011;36226;53.464;9.852;2022-11-20T12:15:30;5.70;;;3.97;;
50319;SDS011;36226;53.464;9.852;2022-11-20T12:17:56;6.65;;;3.95;;
50319;SDS011;36226;53.464;9.852;2022-11-20T12:20:24;6.43;;;3.95;;
50319;SDS011;36226;53.464;9.852;2022-11-20T12:25:34;7.28;;;3.30;;
50319;SDS011;36226;53.464;9.852;2022-11-20T12:30:32;4.50;;;2.95;;
50319;SDS011;36226;53.464;9.852;2022-11-20T12:39:02;5.28;;;3.28;;
50319;SDS011;36226;53.464;9.852;2022-11-20T12:53:05;6.82;;;4.35;;
50319;SDS011;36226;53.464;9.852;2022-11-20T12:57:59;6.20;;;3.78;;
50319;SDS011;36226;53.464;9.852;2022-11-20T13:00:29;6.18;;;3.40;;
50319;SDS011;36226;53.464;9.852;2022-11-20T13:05:37;3.25;;;2.33;;
50319;SDS011;36226;53.464;9.852;2022-11-20T13:08:33;3.13;;;2.05;;
50319;SDS011;36226;53.464;9.852;2022-11-20T13:11:11;3.88;;;2.70;;
50319;SDS011;36226;53.464;9.852;2022-11-20T13:16:52;3.50;;;2.15;;
50319;SDS011;36226;53.464;9.852;2022-11-20T13:19:04;3.25;;;1.90;;
50319;SDS011;36226;53.464;9.852;2022-11-20T13:24:05;2.35;;;1.90;;
50319;SDS011;36226;53.464;9.852;2022-11-20T13:26:32;2.90;;;2.25;;
50319;SDS011;36226;53.464;9.852;2022-11-20T13:29:00;3.33;;;2.50;;
50319;SDS011;36226;53.464;9.852;2022-11-20T13:31:29;3.55;;;2.00;;
50319;SDS011;36226;53.464;9.852;2022-11-20T13:33:56;3.75;;;2.63;;
50319;SDS011;36226;53.464;9.852;2022-11-20T13:36:23;5.97;;;2.97;;
50319;SDS011;36226;53.464;9.852;2022-11-20T13:38:52;3.50;;;2.38;;
50319;SDS011;36226;53.464;9.852;2022-11-20T13:41:28;3.65;;;2.30;;
50319;SDS011;36226;53.464;9.852;2022-11-20T13:46:51;3.17;;;2.10;;
50319;SDS011;36226;53.464;9.852;2022-11-20T13:49:18;5.63;;;2.45;;
50319;SDS011;36226;53.464;9.852;2022-11-20T13:51:50;3.17;;;2.20;;
50319;SDS011;36226;53.464;9.852;2022-11-20T14:02:37;5.90;;;3.08;;
50319;SDS011;36226;53.464;9.852;2022-11-20T14:05:03;4.80;;;3.00;;
50319;SDS011;36226;53.464;9.852;2022-11-20T14:07:35;5.07;;;2.72;;
50319;SDS011;36226;53.464;9.852;2022-11-20T14:10:02;4.03;;;2.67;;
50319;SDS011;36226;53.464;9.852;2022-11-20T14:12:29;4.55;;;2.72;;
50319;SDS011;36226;53.464;9.852;2022-11-20T14:14:56;5.60;;;2.78;;
50319;SDS011;36226;53.464;9.852;2022-11-20T14:17:23;5.22;;;2.97;;
50319;SDS011;36226;53.464;9.852;2022-11-20T14:19:55;5.20;;;3.03;;
50319;SDS011;36226;53.464;9.852;2022-11-20T14:22:25;5.57;;;3.00;;
50319;SDS011;36226;53.464;9.852;2022-11-20T14:28:26;4.25;;;2.70;;
50319;SDS011;36226;53.464;9.852;2022-11-20T14:30:53;4.32;;;2.70;;
50319;SDS011;36226;53.464;9.852;2022-11-20T14:33:20;3.85;;;2.55;;
50319;SDS011;36226;53.464;9.852;2022-11-20T14:35:50;6.75;;;3.25;;
50319;SDS011;36226;53.464;9.852;2022-11-20T14:38:19;7.70;;;4.63;;
50319;SDS011;36226;53.464;9.852;2022-11-20T14:40:52;5.72;;;2.92;;
50319;SDS011;36226;53.464;9.852;2022-11-20T14:43:27;5.00;;;3.22;;
50319;SDS011;36226;53.464;9.852;2022-11-20T14:46:00;6.00;;;3.72;;
50319;SDS011;36226;53.464;9.852;2022-11-20T14:48:37;4.80;;;3.30;;
50319;SDS011;36226;53.464;9.852;2022-11-20T14:51:04;5.65;;;3.83;;
50319;SDS011;36226;53.464;9.852;2022-11-20T14:53:29;4.45;;;3.15;;
50319;SDS011;36226;53.464;9.852;2022-11-20T14:55:59;5.07;;;3.17;;
50319;SDS011;36226;53.464;9.852;2022-11-20T14:58:26;4.70;;;2.95;;
50319;SDS011;36226;53.464;9.852;2022-11-20T15:00:56;4.35;;;2.80;;
50319;SDS011;36226;53.464;9.852;2022-11-20T15:03:33;18.45;;;10.40;;
50319;SDS011;36226;53.464;9.852;2022-11-20T15:05:59;15.65;;;8.68;;
50319;SDS011;36226;53.464;9.852;2022-11-20T15:08:27;7.00;;;3.67;;
50319;SDS011;36226;53.464;9.852;2022-11-20T15:10:53;8.50;;;4.10;;
50319;SDS011;36226;53.464;9.852;2022-11-20T15:13:24;14.20;;;7.95;;
50319;SDS011;36226;53.464;9.852;2022-11-20T15:15:52;13.50;;;7.85;;
50319;SDS011;36226;53.464;9.852;2022-11-20T15:18:23;7.65;;;4.40;;
50319;SDS011;36226;53.464;9.852;2022-11-20T15:21:00;7.32;;;4.15;;
50319;SDS011;36226;53.464;9.852;2022-11-20T15:23:27;6.03;;;3.42;;
50319;SDS011;36226;53.464;9.852;2022-11-20T15:25:53;7.45;;;4.13;;
50319;SDS011;36226;53.464;9.852;2022-11-20T15:30:46;8.15;;;4.43;;
50319;SDS011;36226;53.464;9.852;2022-11-20T15:33:12;9.13;;;4.68;;
50319;SDS011;36226;53.464;9.852;2022-11-20T15:35:38;8.18;;;4.85;;
50319;SDS011;36226;53.464;9.852;2022-11-20T15:38:03;9.85;;;5.07;;
50319;SDS011;36226;53.464;9.852;2022-11-20T15:40:28;7.97;;;4.70;;
50319;SDS011;36226;53.464;9.852;2022-11-20T15:42:54;9.07;;;4.43;;
50319;SDS011;36226;53.464;9.852;2022-11-20T15:45:29;5.43;;;3.47;;
50319;SDS011;36226;53.464;9.852;2022-11-20T15:47:56;5.85;;;3.67;;
50319;SDS011;36226;53.464;9.852;2022-11-20T15:50:21;7.70;;;4.20;;
50319;SDS011;36226;53.464;9.852;2022-11-20T15:52:49;6.85;;;3.90;;
50319;SDS011;36226;53.464;9.852;2022-11-20T15:55:14;8.55;;;4.63;;
50319;SDS011;36226;53.464;9.852;2022-11-20T15:57:39;6.60;;;3.78;;
50319;SDS011;36226;53.464;9.852;2022-11-20T16:00:05;7.40;;;3.80;;
50319;SDS011;36226;53.464;9.852;2022-11-20T16:02:31;6.63;;;3.75;;
50319;SDS011;36226;53.464;9.852;2022-11-20T16:04:56;6.28;;;3.65;;
50319;SDS011;36226;53.464;9.852;2022-11-20T16:07:21;5.63;;;3.90;;
50319;SDS011;36226;53.464;9.852;2022-11-20T16:09:47;6.80;;;4.13;;
50319;SDS011;36226;53.464;9.852;2022-11-20T16:12:12;6.32;;;4.20;;
50319;SDS011;36226;53.464;9.852;2022-11-20T16:14:57;6.85;;;4.28;;
50319;SDS011;36226;53.464;9.852;2022-11-20T16:17:41;6.38;;;3.90;;
50319;SDS011;36226;53.464;9.852;2022-11-20T16:20:12;7.07;;;3.85;;
50319;SDS011;36226;53.464;9.852;2022-11-20T16:22:38;7.70;;;4.05;;
50319;SDS011;36226;53.464;9.852;2022-11-20T16:25:03;5.15;;;3.80;;
50319;SDS011;36226;53.464;9.852;2022-11-20T16:27:29;6.90;;;4.00;;
50319;SDS011;36226;53.464;9.852;2022-11-20T16:29:54;5.10;;;3.67;;
50319;SDS011;36226;53.464;9.852;2022-11-20T16:32:20;5.43;;;3.85;;
50319;SDS011;36226;53.464;9.852;2022-11-20T16:34:45;7.07;;;4.13;;
50319;SDS011;36226;53.464;9.852;2022-11-20T16:37:10;5.05;;;3.53;;
50319;SDS011;36226;53.464;9.852;2022-11-20T16:39:36;5.28;;;3.40;;
50319;SDS011;36226;53.464;9.852;2022-11-20T16:42:04;4.45;;;2.83;;
50319;SDS011;36226;53.464;9.852;2022-11-20T16:44:29;8.60;;;5.20;;
50319;SDS011;36226;53.464;9.852;2022-11-20T16:46:55;9.13;;;5.35;;
50319;SDS011;36226;53.464;9.852;2022-11-20T16:49:20;6.72;;;4.40;;
50319;SDS011;36226;53.464;9.852;2022-11-20T16:51:45;6.28;;;3.60;;
50319;SDS011;36226;53.464;9.852;2022-11-20T16:54:11;6.75;;;3.70;;
50319;SDS011;36226;53.464;9.852;2022-11-20T16:56:36;10.35;;;4.88;;
50319;SDS011;36226;53.464;9.852;2022-11-20T16:59:03;8.57;;;5.20;;
50319;SDS011;36226;53.464;9.852;2022-11-20T17:01:29;11.02;;;5.20;;
50319;SDS011;36226;53.464;9.852;2022-11-20T17:06:29;16.58;;;8.05;;
50319;SDS011;36226;53.464;9.852;2022-11-20T17:08:55;15.57;;;8.65;;
50319;SDS011;36226;53.464;9.852;2022-11-20T17:11:21;21.08;;;11.77;;
50319;SDS011;36226;53.464;9.852;2022-11-20T17:13:47;10.32;;;6.32;;
50319;SDS011;36226;53.464;9.852;2022-11-20T17:16:14;9.32;;;5.30;;
50319;SDS011;36226;53.464;9.852;2022-11-20T17:18:41;7.47;;;4.55;;
50319;SDS011;36226;53.464;9.852;2022-11-20T17:21:07;7.65;;;4.93;;
50319;SDS011;36226;53.464;9.852;2022-11-20T17:23:36;9.32;;;5.47;;